sensor_id;sensor_type;location;lat;lon;timestamp;temperature;humidity
3186;DHT22;1604;53.700;10.252;2023-05-19T00:02:44;5.30;99.90
3186;DHT22;1604;53.700;10.252;2023-05-19T00:05:47;5.30;99.90
3186;DHT22;1604;53.700;10.252;2023-05-19T00:08:56;5.20;99.90
3186;DHT22;1604;53.700;10.252;2023-05-19T00:11:58;5.20;99.90
3186;DHT22;1604;53.700;10.252;2023-05-19T00:15:01;5.10;99.90
3186;DHT22;1604;53.700;10.252;2023-05-19T00:18:03;5.10;99.90
3186;DHT22;1604;53.700;10.252;2023-05-19T00:21:05;5.10;99.90
3186;DHT22;1604;53.700;10.252;2023-05-19T00:24:08;5.10;99.90
3186;DHT22;1604;53.700;10.252;2023-05-19T00:27:10;5.10;99.90
3186;DHT22;1604;53.700;10.252;2023-05-19T00:30:13;5.10;99.90
3186;DHT22;1604;53.700;10.252;2023-05-19T00:33:15;5.00;99.90
3186;DHT22;1604;53.700;10.252;2023-05-19T00:36:16;5.00;99.90
3186;DHT22;1604;53.700;10.252;2023-05-19T00:39:20;5.00;99.90
3186;DHT22;1604;53.700;10.252;2023-05-19T00:42:22;5.00;99.90
3186;DHT22;1604;53.700;10.252;2023-05-19T00:45:24;4.90;99.90
3186;DHT22;1604;53.700;10.252;2023-05-19T00:48:26;4.90;99.90
3186;DHT22;1604;53.700;10.252;2023-05-19T00:51:28;4.90;99.90
3186;DHT22;1604;53.700;10.252;2023-05-19T00:54:34;4.90;99.90
3186;DHT22;1604;53.700;10.252;2023-05-19T00:57:36;4.90;99.90
3186;DHT22;1604;53.700;10.252;2023-05-19T01:00:39;4.80;99.90
3186;DHT22;1604;53.700;10.252;2023-05-19T01:03:43;4.80;99.90
3186;DHT22;1604;53.700;10.252;2023-05-19T01:06:47;4.80;99.90
3186;DHT22;1604;53.700;10.252;2023-05-19T01:09:50;4.80;99.90
3186;DHT22;1604;53.700;10.252;2023-05-19T01:12:52;4.80;99.90
3186;DHT22;1604;53.700;10.252;2023-05-19T01:16:02;4.80;99.90
3186;DHT22;1604;53.700;10.252;2023-05-19T01:19:27;4.80;99.90
3186;DHT22;1604;53.700;10.252;2023-05-19T01:22:56;4.80;99.90
3186;DHT22;1604;53.700;10.252;2023-05-19T01:26:35;4.80;99.90
3186;DHT22;1604;53.700;10.252;2023-05-19T01:29:49;4.80;99.90
3186;DHT22;1604;53.700;10.252;2023-05-19T01:33:01;4.80;99.90
3186;DHT22;1604;53.700;10.252;2023-05-19T01:36:06;4.80;99.90
3186;DHT22;1604;53.700;10.252;2023-05-19T01:39:08;4.80;99.90
3186;DHT22;1604;53.700;10.252;2023-05-19T01:42:11;4.80;99.90
3186;DHT22;1604;53.700;10.252;2023-05-19T01:45:13;4.80;99.90
3186;DHT22;1604;53.700;10.252;2023-05-19T01:48:17;4.80;99.90
3186;DHT22;1604;53.700;10.252;2023-05-19T01:51:19;4.80;99.90
3186;DHT22;1604;53.700;10.252;2023-05-19T01:54:21;4.80;99.90
3186;DHT22;1604;53.700;10.252;2023-05-19T01:57:32;4.80;99.90
3186;DHT22;1604;53.700;10.252;2023-05-19T02:00:47;4.80;99.90
3186;DHT22;1604;53.700;10.252;2023-05-19T02:04:00;4.90;99.90
3186;DHT22;1604;53.700;10.252;2023-05-19T02:07:12;4.90;99.90
3186;DHT22;1604;53.700;10.252;2023-05-19T02:10:21;4.90;99.90
3186;DHT22;1604;53.700;10.252;2023-05-19T02:13:30;4.90;99.90
3186;DHT22;1604;53.700;10.252;2023-05-19T02:16:35;4.90;99.90
3186;DHT22;1604;53.700;10.252;2023-05-19T02:19:40;4.90;99.90
3186;DHT22;1604;53.700;10.252;2023-05-19T02:22:43;4.90;99.90
3186;DHT22;1604;53.700;10.252;2023-05-19T02:25:45;4.90;99.90
3186;DHT22;1604;53.700;10.252;2023-05-19T02:28:47;5.00;99.90
3186;DHT22;1604;53.700;10.252;2023-05-19T02:31:49;5.00;99.90
3186;DHT22;1604;53.700;10.252;2023-05-19T02:34:52;5.00;99.90
3186;DHT22;1604;53.700;10.252;2023-05-19T02:37:56;5.00;99.90
3186;DHT22;1604;53.700;10.252;2023-05-19T02:40:58;5.00;99.90
3186;DHT22;1604;53.700;10.252;2023-05-19T02:44:00;5.10;99.90
3186;DHT22;1604;53.700;10.252;2023-05-19T02:47:02;5.10;99.90
3186;DHT22;1604;53.700;10.252;2023-05-19T02:50:06;5.10;99.90
3186;DHT22;1604;53.700;10.252;2023-05-19T02:53:08;5.10;99.90
3186;DHT22;1604;53.700;10.252;2023-05-19T02:56:11;5.10;99.90
3186;DHT22;1604;53.700;10.252;2023-05-19T02:59:12;5.10;99.90
3186;DHT22;1604;53.700;10.252;2023-05-19T03:02:14;5.20;99.90
3186;DHT22;1604;53.700;10.252;2023-05-19T03:05:17;5.20;99.90
3186;DHT22;1604;53.700;10.252;2023-05-19T03:08:19;5.10;99.90
3186;DHT22;1604;53.700;10.252;2023-05-19T03:11:21;5.20;99.90
3186;DHT22;1604;53.700;10.252;2023-05-19T03:14:23;5.20;99.90
3186;DHT22;1604;53.700;10.252;2023-05-19T03:17:25;5.20;99.90
3186;DHT22;1604;53.700;10.252;2023-05-19T03:20:34;5.20;99.90
3186;DHT22;1604;53.700;10.252;2023-05-19T03:23:36;5.20;99.90
3186;DHT22;1604;53.700;10.252;2023-05-19T03:26:38;5.20;99.90
3186;DHT22;1604;53.700;10.252;2023-05-19T03:29:39;5.20;99.90
3186;DHT22;1604;53.700;10.252;2023-05-19T03:32:41;5.20;99.90
3186;DHT22;1604;53.700;10.252;2023-05-19T03:35:45;5.20;99.90
3186;DHT22;1604;53.700;10.252;2023-05-19T03:38:47;5.30;99.90
3186;DHT22;1604;53.700;10.252;2023-05-19T03:41:49;5.30;99.90
3186;DHT22;1604;53.700;10.252;2023-05-19T03:44:51;5.30;99.90
3186;DHT22;1604;53.700;10.252;2023-05-19T03:47:53;5.30;99.90
3186;DHT22;1604;53.700;10.252;2023-05-19T03:50:57;5.30;99.90
3186;DHT22;1604;53.700;10.252;2023-05-19T03:53:59;5.30;99.90
3186;DHT22;1604;53.700;10.252;2023-05-19T03:57:01;5.30;99.90
3186;DHT22;1604;53.700;10.252;2023-05-19T04:00:04;5.40;99.90
3186;DHT22;1604;53.700;10.252;2023-05-19T04:03:06;5.40;99.90
3186;DHT22;1604;53.700;10.252;2023-05-19T04:06:09;5.40;99.90
3186;DHT22;1604;53.700;10.252;2023-05-19T04:09:14;5.40;99.90
3186;DHT22;1604;53.700;10.252;2023-05-19T04:12:16;5.50;99.90
3186;DHT22;1604;53.700;10.252;2023-05-19T04:15:18;5.50;99.90
3186;DHT22;1604;53.700;10.252;2023-05-19T04:18:20;5.50;99.90
3186;DHT22;1604;53.700;10.252;2023-05-19T04:21:23;5.50;99.90
3186;DHT22;1604;53.700;10.252;2023-05-19T04:24:25;5.60;99.90
3186;DHT22;1604;53.700;10.252;2023-05-19T04:27:27;5.60;99.90
3186;DHT22;1604;53.700;10.252;2023-05-19T04:30:31;5.70;99.90
3186;DHT22;1604;53.700;10.252;2023-05-19T04:33:37;5.70;99.90
3186;DHT22;1604;53.700;10.252;2023-05-19T04:36:40;5.80;99.90
3186;DHT22;1604;53.700;10.252;2023-05-19T04:39:46;5.80;99.90
3186;DHT22;1604;53.700;10.252;2023-05-19T04:42:48;5.90;99.90
3186;DHT22;1604;53.700;10.252;2023-05-19T04:45:52;6.00;99.90
3186;DHT22;1604;53.700;10.252;2023-05-19T04:48:54;6.10;99.90
3186;DHT22;1604;53.700;10.252;2023-05-19T04:51:58;6.10;99.90
3186;DHT22;1604;53.700;10.252;2023-05-19T04:55:00;6.20;99.90
3186;DHT22;1604;53.700;10.252;2023-05-19T04:58:02;6.30;99.90
3186;DHT22;1604;53.700;10.252;2023-05-19T05:01:05;6.30;99.90
3186;DHT22;1604;53.700;10.252;2023-05-19T05:04:09;6.40;99.90
3186;DHT22;1604;53.700;10.252;2023-05-19T05:07:12;6.50;99.90
3186;DHT22;1604;53.700;10.252;2023-05-19T05:10:14;6.50;99.90
3186;DHT22;1604;53.700;10.252;2023-05-19T05:13:16;6.60;99.90
3186;DHT22;1604;53.700;10.252;2023-05-19T05:16:19;6.60;99.90
3186;DHT22;1604;53.700;10.252;2023-05-19T05:19:22;6.70;99.90
3186;DHT22;1604;53.700;10.252;2023-05-19T05:22:26;6.80;99.90
3186;DHT22;1604;53.700;10.252;2023-05-19T05:25:28;6.90;99.90
3186;DHT22;1604;53.700;10.252;2023-05-19T05:28:30;6.90;99.90
3186;DHT22;1604;53.700;10.252;2023-05-19T05:31:32;7.00;99.90
3186;DHT22;1604;53.700;10.252;2023-05-19T05:34:34;7.10;99.90
3186;DHT22;1604;53.700;10.252;2023-05-19T05:37:39;7.20;99.90
3186;DHT22;1604;53.700;10.252;2023-05-19T05:40:40;7.30;99.90
3186;DHT22;1604;53.700;10.252;2023-05-19T05:43:43;7.40;99.90
3186;DHT22;1604;53.700;10.252;2023-05-19T05:46:45;7.60;99.90
3186;DHT22;1604;53.700;10.252;2023-05-19T05:49:48;7.70;99.90
3186;DHT22;1604;53.700;10.252;2023-05-19T05:52:54;7.90;99.90
3186;DHT22;1604;53.700;10.252;2023-05-19T05:55:58;8.00;99.90
3186;DHT22;1604;53.700;10.252;2023-05-19T05:59:01;8.20;99.90
3186;DHT22;1604;53.700;10.252;2023-05-19T06:02:03;8.30;99.90
3186;DHT22;1604;53.700;10.252;2023-05-19T06:05:06;8.50;99.90
3186;DHT22;1604;53.700;10.252;2023-05-19T06:08:13;8.70;99.90
3186;DHT22;1604;53.700;10.252;2023-05-19T06:11:15;8.80;99.90
3186;DHT22;1604;53.700;10.252;2023-05-19T06:14:16;9.00;99.90
3186;DHT22;1604;53.700;10.252;2023-05-19T06:17:19;9.10;99.90
3186;DHT22;1604;53.700;10.252;2023-05-19T06:20:20;9.30;99.90
3186;DHT22;1604;53.700;10.252;2023-05-19T06:23:24;9.40;99.90
3186;DHT22;1604;53.700;10.252;2023-05-19T06:26:28;9.60;99.90
3186;DHT22;1604;53.700;10.252;2023-05-19T06:29:30;9.80;99.90
3186;DHT22;1604;53.700;10.252;2023-05-19T06:32:32;10.00;99.90
3186;DHT22;1604;53.700;10.252;2023-05-19T06:35:34;10.20;99.90
3186;DHT22;1604;53.700;10.252;2023-05-19T06:38:37;10.40;99.90
3186;DHT22;1604;53.700;10.252;2023-05-19T06:41:39;10.60;99.90
3186;DHT22;1604;53.700;10.252;2023-05-19T06:44:41;10.90;99.90
3186;DHT22;1604;53.700;10.252;2023-05-19T06:47:43;11.20;99.90
3186;DHT22;1604;53.700;10.252;2023-05-19T06:50:45;11.50;99.90
3186;DHT22;1604;53.700;10.252;2023-05-19T06:53:48;11.70;99.90
3186;DHT22;1604;53.700;10.252;2023-05-19T06:56:50;11.90;99.00
3186;DHT22;1604;53.700;10.252;2023-05-19T06:59:52;12.20;98.00
3186;DHT22;1604;53.700;10.252;2023-05-19T07:02:54;12.50;96.80
3186;DHT22;1604;53.700;10.252;2023-05-19T07:05:56;12.70;95.40
3186;DHT22;1604;53.700;10.252;2023-05-19T07:08:59;12.90;95.10
3186;DHT22;1604;53.700;10.252;2023-05-19T07:12:01;13.10;93.20
3186;DHT22;1604;53.700;10.252;2023-05-19T07:15:04;13.40;91.90
3186;DHT22;1604;53.700;10.252;2023-05-19T07:18:06;13.50;92.00
3186;DHT22;1604;53.700;10.252;2023-05-19T07:21:10;13.70;90.70
3186;DHT22;1604;53.700;10.252;2023-05-19T07:24:13;13.80;90.90
3186;DHT22;1604;53.700;10.252;2023-05-19T07:27:15;13.90;90.10
3186;DHT22;1604;53.700;10.252;2023-05-19T07:30:17;14.00;90.00
3186;DHT22;1604;53.700;10.252;2023-05-19T07:33:18;14.20;87.60
3186;DHT22;1604;53.700;10.252;2023-05-19T07:36:20;14.30;88.70
3186;DHT22;1604;53.700;10.252;2023-05-19T07:39:24;14.50;86.20
3186;DHT22;1604;53.700;10.252;2023-05-19T07:42:29;14.60;86.70
3186;DHT22;1604;53.700;10.252;2023-05-19T07:45:30;14.80;87.70
3186;DHT22;1604;53.700;10.252;2023-05-19T07:48:34;14.90;85.40
3186;DHT22;1604;53.700;10.252;2023-05-19T07:51:35;15.00;84.00
3186;DHT22;1604;53.700;10.252;2023-05-19T07:54:39;15.20;86.00
3186;DHT22;1604;53.700;10.252;2023-05-19T07:57:44;15.40;86.10
3186;DHT22;1604;53.700;10.252;2023-05-19T08:00:46;15.70;83.40
3186;DHT22;1604;53.700;10.252;2023-05-19T08:03:51;15.90;83.70
3186;DHT22;1604;53.700;10.252;2023-05-19T08:06:56;16.20;80.90
3186;DHT22;1604;53.700;10.252;2023-05-19T08:10:02;16.40;79.70
3186;DHT22;1604;53.700;10.252;2023-05-19T08:13:07;16.60;78.70
3186;DHT22;1604;53.700;10.252;2023-05-19T08:16:11;16.90;78.20
3186;DHT22;1604;53.700;10.252;2023-05-19T08:19:13;17.10;76.90
3186;DHT22;1604;53.700;10.252;2023-05-19T08:22:15;17.30;72.80
3186;DHT22;1604;53.700;10.252;2023-05-19T08:25:19;17.40;73.20
3186;DHT22;1604;53.700;10.252;2023-05-19T08:28:20;17.40;72.70
3186;DHT22;1604;53.700;10.252;2023-05-19T08:31:22;17.60;73.20
3186;DHT22;1604;53.700;10.252;2023-05-19T08:34:24;17.70;73.10
3186;DHT22;1604;53.700;10.252;2023-05-19T08:37:26;17.70;73.00
3186;DHT22;1604;53.700;10.252;2023-05-19T08:40:32;17.80;73.40
3186;DHT22;1604;53.700;10.252;2023-05-19T08:43:36;17.90;70.50
3186;DHT22;1604;53.700;10.252;2023-05-19T08:46:38;18.00;70.70
3186;DHT22;1604;53.700;10.252;2023-05-19T08:49:43;18.00;70.10
3186;DHT22;1604;53.700;10.252;2023-05-19T08:52:51;18.10;69.70
3186;DHT22;1604;53.700;10.252;2023-05-19T08:56:01;18.30;67.70
3186;DHT22;1604;53.700;10.252;2023-05-19T08:59:10;18.50;68.90
3186;DHT22;1604;53.700;10.252;2023-05-19T09:02:13;18.60;66.40
3186;DHT22;1604;53.700;10.252;2023-05-19T09:05:15;18.70;66.80
3186;DHT22;1604;53.700;10.252;2023-05-19T09:08:18;18.80;65.20
3186;DHT22;1604;53.700;10.252;2023-05-19T09:11:21;18.80;64.60
3186;DHT22;1604;53.700;10.252;2023-05-19T09:14:23;19.00;67.20
3186;DHT22;1604;53.700;10.252;2023-05-19T09:17:25;19.10;66.20
3186;DHT22;1604;53.700;10.252;2023-05-19T09:20:29;19.30;65.10
3186;DHT22;1604;53.700;10.252;2023-05-19T09:23:32;19.50;61.60
3186;DHT22;1604;53.700;10.252;2023-05-19T09:26:40;19.50;62.30
3186;DHT22;1604;53.700;10.252;2023-05-19T09:29:42;19.40;63.40
3186;DHT22;1604;53.700;10.252;2023-05-19T09:32:44;19.10;62.70
3186;DHT22;1604;53.700;10.252;2023-05-19T09:35:46;19.10;64.20
3186;DHT22;1604;53.700;10.252;2023-05-19T09:38:48;19.10;64.10
3186;DHT22;1604;53.700;10.252;2023-05-19T09:41:52;19.20;62.40
3186;DHT22;1604;53.700;10.252;2023-05-19T09:45:01;19.30;62.40
3186;DHT22;1604;53.700;10.252;2023-05-19T09:48:06;19.30;64.30
3186;DHT22;1604;53.700;10.252;2023-05-19T09:51:08;19.60;64.00
3186;DHT22;1604;53.700;10.252;2023-05-19T09:54:13;19.70;61.40
3186;DHT22;1604;53.700;10.252;2023-05-19T09:57:17;20.00;61.80
3186;DHT22;1604;53.700;10.252;2023-05-19T10:00:27;20.20;60.80
3186;DHT22;1604;53.700;10.252;2023-05-19T10:03:30;20.40;59.70
3186;DHT22;1604;53.700;10.252;2023-05-19T10:06:34;20.50;58.80
3186;DHT22;1604;53.700;10.252;2023-05-19T10:09:37;20.70;58.40
3186;DHT22;1604;53.700;10.252;2023-05-19T10:12:41;20.60;57.60
3186;DHT22;1604;53.700;10.252;2023-05-19T10:15:46;20.90;55.30
3186;DHT22;1604;53.700;10.252;2023-05-19T10:18:50;21.00;56.70
3186;DHT22;1604;53.700;10.252;2023-05-19T10:21:54;20.80;57.70
3186;DHT22;1604;53.700;10.252;2023-05-19T10:24:56;20.80;55.20
3186;DHT22;1604;53.700;10.252;2023-05-19T10:28:04;20.70;56.20
3186;DHT22;1604;53.700;10.252;2023-05-19T10:31:14;20.80;56.90
3186;DHT22;1604;53.700;10.252;2023-05-19T10:37:54;20.90;55.10
3186;DHT22;1604;53.700;10.252;2023-05-19T10:41:09;20.90;57.20
3186;DHT22;1604;53.700;10.252;2023-05-19T10:44:22;20.90;56.30
3186;DHT22;1604;53.700;10.252;2023-05-19T10:47:30;21.00;57.30
3186;DHT22;1604;53.700;10.252;2023-05-19T10:50:35;21.00;58.10
3186;DHT22;1604;53.700;10.252;2023-05-19T10:53:41;21.00;57.40
3186;DHT22;1604;53.700;10.252;2023-05-19T10:56:45;21.10;58.10
3186;DHT22;1604;53.700;10.252;2023-05-19T10:59:49;21.30;58.20
3186;DHT22;1604;53.700;10.252;2023-05-19T11:02:51;21.40;57.20
3186;DHT22;1604;53.700;10.252;2023-05-19T11:06:16;21.60;55.00
3186;DHT22;1604;53.700;10.252;2023-05-19T11:09:18;21.80;54.80
3186;DHT22;1604;53.700;10.252;2023-05-19T11:12:23;21.80;56.10
3186;DHT22;1604;53.700;10.252;2023-05-19T11:15:27;21.80;55.70
3186;DHT22;1604;53.700;10.252;2023-05-19T11:18:30;21.80;54.80
3186;DHT22;1604;53.700;10.252;2023-05-19T11:21:42;21.70;53.30
3186;DHT22;1604;53.700;10.252;2023-05-19T11:24:48;21.40;54.90
3186;DHT22;1604;53.700;10.252;2023-05-19T11:27:52;21.20;56.80
3186;DHT22;1604;53.700;10.252;2023-05-19T11:30:57;21.40;56.20
3186;DHT22;1604;53.700;10.252;2023-05-19T11:33:59;21.40;57.20
3186;DHT22;1604;53.700;10.252;2023-05-19T11:37:01;21.60;56.10
3186;DHT22;1604;53.700;10.252;2023-05-19T11:40:06;21.60;55.70
3186;DHT22;1604;53.700;10.252;2023-05-19T11:43:08;21.80;52.60
3186;DHT22;1604;53.700;10.252;2023-05-19T11:46:12;21.70;54.00
3186;DHT22;1604;53.700;10.252;2023-05-19T11:49:14;21.70;54.50
3186;DHT22;1604;53.700;10.252;2023-05-19T11:52:16;21.80;53.30
3186;DHT22;1604;53.700;10.252;2023-05-19T11:55:18;21.70;52.60
3186;DHT22;1604;53.700;10.252;2023-05-19T11:58:24;21.70;51.90
3186;DHT22;1604;53.700;10.252;2023-05-19T12:01:32;21.70;53.20
3186;DHT22;1604;53.700;10.252;2023-05-19T12:04:34;21.80;52.20
3186;DHT22;1604;53.700;10.252;2023-05-19T12:07:36;21.70;52.70
3186;DHT22;1604;53.700;10.252;2023-05-19T12:10:39;21.70;54.10
3186;DHT22;1604;53.700;10.252;2023-05-19T12:13:41;21.60;54.80
3186;DHT22;1604;53.700;10.252;2023-05-19T12:16:44;21.70;54.30
3186;DHT22;1604;53.700;10.252;2023-05-19T12:19:47;21.90;54.50
3186;DHT22;1604;53.700;10.252;2023-05-19T12:22:50;21.90;53.80
3186;DHT22;1604;53.700;10.252;2023-05-19T12:25:52;22.00;56.40
3186;DHT22;1604;53.700;10.252;2023-05-19T12:28:54;22.10;54.50
3186;DHT22;1604;53.700;10.252;2023-05-19T12:31:57;22.00;54.00
3186;DHT22;1604;53.700;10.252;2023-05-19T12:35:02;22.10;53.70
3186;DHT22;1604;53.700;10.252;2023-05-19T12:38:05;22.10;52.50
3186;DHT22;1604;53.700;10.252;2023-05-19T12:41:11;22.00;54.40
3186;DHT22;1604;53.700;10.252;2023-05-19T12:44:14;22.00;52.80
3186;DHT22;1604;53.700;10.252;2023-05-19T12:47:18;21.80;51.80
3186;DHT22;1604;53.700;10.252;2023-05-19T12:50:28;21.70;54.40
3186;DHT22;1604;53.700;10.252;2023-05-19T12:53:32;21.70;54.10
3186;DHT22;1604;53.700;10.252;2023-05-19T12:56:35;21.70;52.40
3186;DHT22;1604;53.700;10.252;2023-05-19T12:59:37;21.60;53.80
3186;DHT22;1604;53.700;10.252;2023-05-19T13:06:14;21.50;52.80
3186;DHT22;1604;53.700;10.252;2023-05-19T13:09:18;21.60;53.60
3186;DHT22;1604;53.700;10.252;2023-05-19T13:12:23;21.50;53.20
3186;DHT22;1604;53.700;10.252;2023-05-19T13:15:27;21.50;53.70
3186;DHT22;1604;53.700;10.252;2023-05-19T13:18:31;21.50;52.40
3186;DHT22;1604;53.700;10.252;2023-05-19T13:21:36;21.60;53.10
3186;DHT22;1604;53.700;10.252;2023-05-19T13:24:38;21.60;52.20
3186;DHT22;1604;53.700;10.252;2023-05-19T13:27:40;21.50;50.70
3186;DHT22;1604;53.700;10.252;2023-05-19T13:30:42;21.30;52.80
3186;DHT22;1604;53.700;10.252;2023-05-19T13:33:45;21.10;53.50
3186;DHT22;1604;53.700;10.252;2023-05-19T13:36:48;21.00;53.40
3186;DHT22;1604;53.700;10.252;2023-05-19T13:39:50;20.90;53.20
3186;DHT22;1604;53.700;10.252;2023-05-19T13:42:52;20.60;53.30
3186;DHT22;1604;53.700;10.252;2023-05-19T13:45:54;20.50;52.20
3186;DHT22;1604;53.700;10.252;2023-05-19T13:48:56;20.50;51.80
3186;DHT22;1604;53.700;10.252;2023-05-19T13:51:59;20.30;52.90
3186;DHT22;1604;53.700;10.252;2023-05-19T13:55:01;20.20;52.60
3186;DHT22;1604;53.700;10.252;2023-05-19T13:58:03;20.30;52.90
3186;DHT22;1604;53.700;10.252;2023-05-19T14:01:05;20.50;53.20
3186;DHT22;1604;53.700;10.252;2023-05-19T14:04:07;20.50;53.70
3186;DHT22;1604;53.700;10.252;2023-05-19T14:07:11;20.60;53.00
3186;DHT22;1604;53.700;10.252;2023-05-19T14:10:13;20.50;51.80
3186;DHT22;1604;53.700;10.252;2023-05-19T14:13:15;20.60;53.70
3186;DHT22;1604;53.700;10.252;2023-05-19T14:16:17;20.60;52.00
3186;DHT22;1604;53.700;10.252;2023-05-19T14:19:19;20.60;53.20
3186;DHT22;1604;53.700;10.252;2023-05-19T14:22:23;20.40;54.00
3186;DHT22;1604;53.700;10.252;2023-05-19T14:25:26;20.50;54.10
3186;DHT22;1604;53.700;10.252;2023-05-19T14:28:28;20.60;54.20
3186;DHT22;1604;53.700;10.252;2023-05-19T14:31:31;20.50;55.20
3186;DHT22;1604;53.700;10.252;2023-05-19T14:34:33;20.40;54.50
3186;DHT22;1604;53.700;10.252;2023-05-19T14:37:37;20.40;55.40
3186;DHT22;1604;53.700;10.252;2023-05-19T14:40:41;20.30;56.20
3186;DHT22;1604;53.700;10.252;2023-05-19T14:43:47;20.30;56.30
3186;DHT22;1604;53.700;10.252;2023-05-19T14:46:51;20.30;58.00
3186;DHT22;1604;53.700;10.252;2023-05-19T14:49:53;20.30;57.20
3186;DHT22;1604;53.700;10.252;2023-05-19T14:52:56;20.30;57.30
3186;DHT22;1604;53.700;10.252;2023-05-19T14:55:58;20.40;58.00
3186;DHT22;1604;53.700;10.252;2023-05-19T14:59:00;20.30;57.80
3186;DHT22;1604;53.700;10.252;2023-05-19T15:02:04;20.20;58.30
3186;DHT22;1604;53.700;10.252;2023-05-19T15:05:06;20.10;58.30
3186;DHT22;1604;53.700;10.252;2023-05-19T15:08:10;19.80;58.40
3186;DHT22;1604;53.700;10.252;2023-05-19T15:11:12;19.60;59.30
3186;DHT22;1604;53.700;10.252;2023-05-19T15:14:13;19.40;59.10
3186;DHT22;1604;53.700;10.252;2023-05-19T15:17:15;19.30;60.50
3186;DHT22;1604;53.700;10.252;2023-05-19T15:20:17;19.20;59.80
3186;DHT22;1604;53.700;10.252;2023-05-19T15:23:21;19.00;60.40
3186;DHT22;1604;53.700;10.252;2023-05-19T15:26:22;18.80;60.50
3186;DHT22;1604;53.700;10.252;2023-05-19T15:29:25;18.60;60.90
3186;DHT22;1604;53.700;10.252;2023-05-19T15:32:27;18.40;61.30
3186;DHT22;1604;53.700;10.252;2023-05-19T15:35:29;18.20;62.30
3186;DHT22;1604;53.700;10.252;2023-05-19T15:38:34;18.10;62.50
3186;DHT22;1604;53.700;10.252;2023-05-19T15:41:36;17.90;62.40
3186;DHT22;1604;53.700;10.252;2023-05-19T15:44:38;17.90;63.10
3186;DHT22;1604;53.700;10.252;2023-05-19T15:47:40;17.90;62.70
3186;DHT22;1604;53.700;10.252;2023-05-19T15:50:42;17.70;63.50
3186;DHT22;1604;53.700;10.252;2023-05-19T15:53:46;17.60;64.20
3186;DHT22;1604;53.700;10.252;2023-05-19T15:56:48;17.60;65.60
3186;DHT22;1604;53.700;10.252;2023-05-19T15:59:50;17.60;65.20
3186;DHT22;1604;53.700;10.252;2023-05-19T16:02:55;17.60;64.70
3186;DHT22;1604;53.700;10.252;2023-05-19T16:05:57;17.50;64.40
3186;DHT22;1604;53.700;10.252;2023-05-19T16:09:01;17.30;65.00
3186;DHT22;1604;53.700;10.252;2023-05-19T16:12:04;17.20;64.70
3186;DHT22;1604;53.700;10.252;2023-05-19T16:15:06;17.20;64.80
3186;DHT22;1604;53.700;10.252;2023-05-19T16:18:08;17.10;65.30
3186;DHT22;1604;53.700;10.252;2023-05-19T16:21:11;17.00;65.90
3186;DHT22;1604;53.700;10.252;2023-05-19T16:24:14;16.90;66.00
3186;DHT22;1604;53.700;10.252;2023-05-19T16:27:16;16.70;66.50
3186;DHT22;1604;53.700;10.252;2023-05-19T16:30:18;16.60;67.70
3186;DHT22;1604;53.700;10.252;2023-05-19T16:33:23;16.60;67.60
3186;DHT22;1604;53.700;10.252;2023-05-19T16:36:25;16.50;68.60
3186;DHT22;1604;53.700;10.252;2023-05-19T16:39:28;16.50;69.10
3186;DHT22;1604;53.700;10.252;2023-05-19T16:42:31;16.50;69.60
3186;DHT22;1604;53.700;10.252;2023-05-19T16:45:33;16.60;69.60
3186;DHT22;1604;53.700;10.252;2023-05-19T16:48:35;16.60;69.60
3186;DHT22;1604;53.700;10.252;2023-05-19T16:51:37;16.50;69.70
3186;DHT22;1604;53.700;10.252;2023-05-19T16:54:40;16.50;69.80
3186;DHT22;1604;53.700;10.252;2023-05-19T16:57:42;16.50;71.00
3186;DHT22;1604;53.700;10.252;2023-05-19T17:00:50;16.50;71.80
3186;DHT22;1604;53.700;10.252;2023-05-19T17:03:54;16.50;72.00
3186;DHT22;1604;53.700;10.252;2023-05-19T17:06:56;16.40;72.90
3186;DHT22;1604;53.700;10.252;2023-05-19T17:10:00;16.40;74.30
3186;DHT22;1604;53.700;10.252;2023-05-19T17:13:02;16.40;75.10
3186;DHT22;1604;53.700;10.252;2023-05-19T17:16:05;16.30;75.90
3186;DHT22;1604;53.700;10.252;2023-05-19T17:19:06;16.20;76.80
3186;DHT22;1604;53.700;10.252;2023-05-19T17:22:08;16.10;77.90
3186;DHT22;1604;53.700;10.252;2023-05-19T17:25:12;16.00;79.10
3186;DHT22;1604;53.700;10.252;2023-05-19T17:28:14;15.90;79.70
3186;DHT22;1604;53.700;10.252;2023-05-19T17:31:16;15.80;80.70
3186;DHT22;1604;53.700;10.252;2023-05-19T17:34:18;15.70;81.40
3186;DHT22;1604;53.700;10.252;2023-05-19T17:37:20;15.70;82.30
3186;DHT22;1604;53.700;10.252;2023-05-19T17:40:26;15.60;82.70
3186;DHT22;1604;53.700;10.252;2023-05-19T17:43:28;15.60;83.00
3186;DHT22;1604;53.700;10.252;2023-05-19T17:46:30;15.50;82.80
3186;DHT22;1604;53.700;10.252;2023-05-19T17:49:34;15.40;83.30
3186;DHT22;1604;53.700;10.252;2023-05-19T17:52:37;15.30;84.00
3186;DHT22;1604;53.700;10.252;2023-05-19T17:55:46;15.20;84.50
3186;DHT22;1604;53.700;10.252;2023-05-19T17:58:51;15.20;84.80
3186;DHT22;1604;53.700;10.252;2023-05-19T18:01:53;15.10;84.40
3186;DHT22;1604;53.700;10.252;2023-05-19T18:04:55;15.00;83.60
3186;DHT22;1604;53.700;10.252;2023-05-19T18:07:58;15.00;83.30
3186;DHT22;1604;53.700;10.252;2023-05-19T18:11:04;14.90;83.30
3186;DHT22;1604;53.700;10.252;2023-05-19T18:14:06;14.90;83.20
3186;DHT22;1604;53.700;10.252;2023-05-19T18:17:08;14.80;83.00
3186;DHT22;1604;53.700;10.252;2023-05-19T18:20:11;14.80;83.10
3186;DHT22;1604;53.700;10.252;2023-05-19T18:23:13;14.70;83.00
3186;DHT22;1604;53.700;10.252;2023-05-19T18:26:16;14.60;83.00
3186;DHT22;1604;53.700;10.252;2023-05-19T18:29:18;14.60;82.70
3186;DHT22;1604;53.700;10.252;2023-05-19T18:32:20;14.50;82.60
3186;DHT22;1604;53.700;10.252;2023-05-19T18:35:22;14.40;83.00
3186;DHT22;1604;53.700;10.252;2023-05-19T18:38:24;14.40;83.60
3186;DHT22;1604;53.700;10.252;2023-05-19T18:41:27;14.30;83.80
3186;DHT22;1604;53.700;10.252;2023-05-19T18:44:29;14.20;84.10
3186;DHT22;1604;53.700;10.252;2023-05-19T18:47:33;14.20;84.50
3186;DHT22;1604;53.700;10.252;2023-05-19T18:50:35;14.10;84.80
3186;DHT22;1604;53.700;10.252;2023-05-19T18:53:37;14.10;85.20
3186;DHT22;1604;53.700;10.252;2023-05-19T18:56:40;14.00;85.70
3186;DHT22;1604;53.700;10.252;2023-05-19T18:59:42;14.00;86.10
3186;DHT22;1604;53.700;10.252;2023-05-19T19:02:44;13.90;86.40
3186;DHT22;1604;53.700;10.252;2023-05-19T19:05:52;13.80;86.80
3186;DHT22;1604;53.700;10.252;2023-05-19T19:08:54;13.70;87.40
3186;DHT22;1604;53.700;10.252;2023-05-19T19:11:57;13.70;87.90
3186;DHT22;1604;53.700;10.252;2023-05-19T19:14:59;13.60;88.20
3186;DHT22;1604;53.700;10.252;2023-05-19T19:18:02;13.50;88.80
3186;DHT22;1604;53.700;10.252;2023-05-19T19:21:04;13.40;89.30
3186;DHT22;1604;53.700;10.252;2023-05-19T19:24:06;13.40;90.00
3186;DHT22;1604;53.700;10.252;2023-05-19T19:27:10;13.30;90.50
3186;DHT22;1604;53.700;10.252;2023-05-19T19:30:12;13.20;90.80
3186;DHT22;1604;53.700;10.252;2023-05-19T19:33:14;13.10;91.40
3186;DHT22;1604;53.700;10.252;2023-05-19T19:36:16;13.10;91.90
3186;DHT22;1604;53.700;10.252;2023-05-19T19:39:18;13.00;92.60
3186;DHT22;1604;53.700;10.252;2023-05-19T19:42:22;12.90;93.10
3186;DHT22;1604;53.700;10.252;2023-05-19T19:45:24;12.80;93.50
3186;DHT22;1604;53.700;10.252;2023-05-19T19:48:26;12.80;93.80
3186;DHT22;1604;53.700;10.252;2023-05-19T19:51:28;12.70;94.10
3186;DHT22;1604;53.700;10.252;2023-05-19T19:54:31;12.60;94.90